createdAt,value
2022-08-14T00:02:31.518Z,19.05
2022-08-14T00:07:35.579Z,19.20
2022-08-14T00:12:56.656Z,20.23
2022-08-14T00:17:59.721Z,16.40
2022-08-14T00:23:16.431Z,18.98
2022-08-14T00:28:22.018Z,19.52
2022-08-14T00:33:51.857Z,20.42
2022-08-14T00:38:52.915Z,19.45
2022-08-14T00:43:55.332Z,21.15
2022-08-14T00:48:59.750Z,22.20
2022-08-14T00:54:03.102Z,22.10
2022-08-14T00:59:07.167Z,20.55
2022-08-14T01:04:51.259Z,20.48
2022-08-14T01:09:37.637Z,18.77
2022-08-14T01:14:41.662Z,18.80
2022-08-14T01:20:02.565Z,17.15
2022-08-14T01:25:08.335Z,20.85
2022-08-14T01:30:11.297Z,18.33
2022-08-14T01:36:04.338Z,18.33
2022-08-14T01:40:42.173Z,17.90
2022-08-14T01:45:49.211Z,14.90
2022-08-14T01:51:02.794Z,18.58
2022-08-14T01:56:12.197Z,18.90
2022-08-14T02:01:20.970Z,20.48
2022-08-14T02:06:32.406Z,19.85
2022-08-14T02:11:37.057Z,20.95
2022-08-14T02:16:42.610Z,17.10
2022-08-14T02:21:50.401Z,17.50
2022-08-14T02:28:19.002Z,20.48
2022-08-14T02:32:30.010Z,18.92
2022-08-14T02:37:47.004Z,17.65
2022-08-14T02:42:55.327Z,18.05
2022-08-14T02:48:03.525Z,17.90
2022-08-14T02:53:06.139Z,19.10
2022-08-14T02:58:11.099Z,15.80
2022-08-14T03:03:32.053Z,15.77
2022-08-14T03:08:45.876Z,18.35
2022-08-14T03:13:52.033Z,20.25
2022-08-14T03:18:58.344Z,22.00
2022-08-14T03:24:21.326Z,20.02
2022-08-14T03:29:29.565Z,16.65
2022-08-14T03:34:47.887Z,15.97
2022-08-14T03:39:55.356Z,15.00
2022-08-14T03:45:25.185Z,15.57
2022-08-14T03:50:27.560Z,16.60
2022-08-14T03:55:33.639Z,13.07
2022-08-14T04:00:40.690Z,13.90
2022-08-14T04:05:48.964Z,15.57
2022-08-14T04:10:54.688Z,11.47
2022-08-14T04:16:01.945Z,11.90
2022-08-14T04:21:08.267Z,13.83
2022-08-14T04:26:27.328Z,11.93
2022-08-14T04:33:00.331Z,12.03
2022-08-14T04:37:24.614Z,13.37
2022-08-14T04:42:47.631Z,15.03
2022-08-14T04:48:13.098Z,13.37
2022-08-14T04:53:23.287Z,12.73
2022-08-14T04:58:32.989Z,17.30
2022-08-14T05:03:38.370Z,14.37
2022-08-14T05:08:56.629Z,11.50
2022-08-14T05:14:33.084Z,13.03
2022-08-14T05:19:29.560Z,15.33
2022-08-14T05:24:32.294Z,14.13
2022-08-14T05:29:35.295Z,10.40
2022-08-14T05:34:37.607Z,11.23
2022-08-14T05:39:41.708Z,11.67
2022-08-14T05:44:46.121Z,13.17
2022-08-14T05:49:48.637Z,10.20
2022-08-14T05:54:51.037Z,11.55
2022-08-14T05:59:53.381Z,17.58
2022-08-14T06:04:58.843Z,9.48
2022-08-14T06:10:03.929Z,13.38
2022-08-14T06:15:08.745Z,11.50
2022-08-14T06:20:12.862Z,15.70
2022-08-14T06:25:16.365Z,10.73
2022-08-14T06:30:45.654Z,10.05
2022-08-14T06:35:49.963Z,9.13
2022-08-14T06:40:53.337Z,13.02
2022-08-14T06:45:57.107Z,11.23
2022-08-14T06:50:59.840Z,10.35
2022-08-14T06:56:03.142Z,12.45
2022-08-14T07:01:27.601Z,8.65
2022-08-14T07:06:46.367Z,9.88
2022-08-14T07:11:50.977Z,12.00
2022-08-14T07:16:53.434Z,11.05
2022-08-14T07:21:56.813Z,12.15
2022-08-14T07:27:01.906Z,9.27
2022-08-14T07:32:04.715Z,9.07
2022-08-14T07:37:07.099Z,9.38
2022-08-14T07:42:09.529Z,10.48
2022-08-14T07:47:12.147Z,12.57
2022-08-14T07:52:14.521Z,7.30
2022-08-14T07:57:25.115Z,13.45
2022-08-14T08:02:31.311Z,8.02
2022-08-14T08:07:39.208Z,9.50
2022-08-14T08:12:43.534Z,12.90
2022-08-14T08:17:53.769Z,6.82
2022-08-14T08:23:06.672Z,8.73
2022-08-14T08:28:21.836Z,7.40
2022-08-14T08:33:31.777Z,10.25
2022-08-14T08:39:17.744Z,10.30
2022-08-14T08:44:05.595Z,7.25
2022-08-14T08:49:08.632Z,10.63
2022-08-14T08:54:18.567Z,6.25
2022-08-14T08:59:31.065Z,7.15
2022-08-14T09:04:45.726Z,9.30
2022-08-14T09:10:00.139Z,6.10
2022-08-14T09:15:12.153Z,8.07
2022-08-14T09:20:25.989Z,8.20
2022-08-14T09:25:58.899Z,5.88
2022-08-14T09:30:57.788Z,6.63
2022-08-14T09:36:12.655Z,5.68
2022-08-14T09:42:21.164Z,11.80
2022-08-14T09:46:54.412Z,7.18
2022-08-14T09:52:32.997Z,6.50
2022-08-14T09:57:34.798Z,6.53
2022-08-14T10:02:37.414Z,6.97
2022-08-14T10:07:53.982Z,8.70
2022-08-14T10:13:05.479Z,11.00
2022-08-14T10:18:17.516Z,5.55
2022-08-14T10:23:23.077Z,5.10
2022-08-14T10:29:03.717Z,10.50
2022-08-14T10:34:12.809Z,8.65
2022-08-14T10:39:22.530Z,17.02
2022-08-14T10:44:39.677Z,13.43
2022-08-14T10:49:53.187Z,12.68
2022-08-14T10:55:14.014Z,11.25
2022-08-14T11:00:29.964Z,11.10
2022-08-14T11:05:44.477Z,12.90
2022-08-14T11:10:57.232Z,14.05
2022-08-14T11:16:02.307Z,12.35
2022-08-14T11:21:10.490Z,13.77
2022-08-14T11:26:16.615Z,10.02
2022-08-14T11:31:24.114Z,12.05
2022-08-14T11:36:57.022Z,11.95
2022-08-14T11:41:55.885Z,10.65
2022-08-14T11:46:58.604Z,13.30
2022-08-14T11:52:00.979Z,12.40
2022-08-14T11:57:05.918Z,11.15
2022-08-14T12:02:36.030Z,12.18
2022-08-14T12:07:49.203Z,12.07
2022-08-14T12:12:56.470Z,15.82
2022-08-14T12:18:01.186Z,11.55
2022-08-14T12:23:07.083Z,14.93
2022-08-14T12:28:33.387Z,19.08
2022-08-14T12:33:34.653Z,12.25
2022-08-14T12:38:45.048Z,42.95
2022-08-14T12:43:52.051Z,13.90
2022-08-14T12:48:55.569Z,14.70
2022-08-14T12:54:00.026Z,14.27
2022-08-14T12:59:04.696Z,14.65
2022-08-14T13:04:13.519Z,11.75
2022-08-14T13:09:17.600Z,11.68
2022-08-14T13:14:29.800Z,13.52
2022-08-14T13:19:33.491Z,12.18
2022-08-14T13:24:38.846Z,10.52
2022-08-14T13:29:43.801Z,8.52
2022-08-14T13:34:49.942Z,12.52
2022-08-14T13:39:57.494Z,8.55
2022-08-14T13:45:02.738Z,10.88
2022-08-14T13:50:09.320Z,7.18
2022-08-14T13:55:13.510Z,10.68
2022-08-14T14:00:21.726Z,8.57
2022-08-14T14:05:53.405Z,11.27
2022-08-14T14:10:56.649Z,11.10
2022-08-14T14:16:04.689Z,12.15
2022-08-14T14:21:09.174Z,11.27
2022-08-14T14:26:23.296Z,12.75
2022-08-14T14:31:30.081Z,14.50
2022-08-14T14:36:33.333Z,14.98
2022-08-14T14:41:43.329Z,10.93
2022-08-14T14:46:53.030Z,9.27
2022-08-14T14:51:58.845Z,9.65
2022-08-14T14:57:02.288Z,8.75
2022-08-14T15:02:09.139Z,9.40
2022-08-14T15:07:13.029Z,10.07
2022-08-14T15:12:34.149Z,9.13
2022-08-14T15:17:41.142Z,8.80
2022-08-14T15:22:51.202Z,12.82
2022-08-14T15:27:54.955Z,8.88
2022-08-14T15:32:57.379Z,12.68
2022-08-14T15:38:07.826Z,9.32
2022-08-14T15:43:13.055Z,7.93
2022-08-14T15:48:22.135Z,9.48
2022-08-14T15:53:31.545Z,9.02
2022-08-14T15:58:34.727Z,9.88
2022-08-14T16:03:40.932Z,11.02
2022-08-14T16:08:58.791Z,7.72
2022-08-14T16:14:02.548Z,8.88
2022-08-14T16:19:11.052Z,10.25
2022-08-14T16:24:59.861Z,11.60
2022-08-14T16:29:58.910Z,9.85
2022-08-14T16:35:01.385Z,12.52
2022-08-14T16:40:04.338Z,14.73
2022-08-14T16:45:09.682Z,11.55
2022-08-14T16:50:12.279Z,12.43
2022-08-14T16:55:17.931Z,10.98
2022-08-14T17:00:29.964Z,10.88
2022-08-14T17:05:43.160Z,10.25
2022-08-14T17:10:52.181Z,13.10
2022-08-14T17:16:25.244Z,10.63
2022-08-14T17:21:37.596Z,12.38
2022-08-14T17:26:55.145Z,14.23
2022-08-14T17:32:28.242Z,11.70
2022-08-14T17:37:44.822Z,12.00
2022-08-14T17:42:51.443Z,11.75
2022-08-14T17:47:59.538Z,12.80
2022-08-14T17:53:03.102Z,13.52
2022-08-14T17:58:21.678Z,12.95
2022-08-14T18:03:50.098Z,13.60
2022-08-14T18:08:55.301Z,12.57
2022-08-14T18:14:00.662Z,10.77
2022-08-14T18:19:04.501Z,12.23
2022-08-14T18:24:20.162Z,12.63
2022-08-14T18:29:32.025Z,11.93
2022-08-14T18:34:45.254Z,14.48
2022-08-14T18:40:02.906Z,14.68
2022-08-14T18:45:12.642Z,12.95
2022-08-14T18:50:31.519Z,16.65
2022-08-14T18:55:34.206Z,14.63
2022-08-14T19:00:51.307Z,14.10
2022-08-14T19:05:54.850Z,13.57
2022-08-14T19:11:04.097Z,13.63
2022-08-14T19:16:07.636Z,12.40
2022-08-14T19:21:34.432Z,17.42
2022-08-14T19:26:54.740Z,15.13
2022-08-14T19:31:59.349Z,17.33
2022-08-14T19:37:06.053Z,14.40
2022-08-14T19:42:28.275Z,13.35
2022-08-14T19:47:53.859Z,12.48
2022-08-14T19:53:17.339Z,16.77
2022-08-14T19:58:27.962Z,20.30
2022-08-14T20:03:59.856Z,15.02
2022-08-14T20:11:08.343Z,15.70
2022-08-14T20:14:30.714Z,18.45
2022-08-14T20:19:38.093Z,16.35
2022-08-14T20:24:45.261Z,13.82
2022-08-14T20:30:28.852Z,17.98
2022-08-14T20:35:44.386Z,28.08
2022-08-14T20:40:56.065Z,30.50
2022-08-14T20:45:59.233Z,32.33
2022-08-14T20:51:20.482Z,37.75
2022-08-14T20:56:28.638Z,35.40
2022-08-14T21:01:35.829Z,38.20
2022-08-14T21:07:23.557Z,30.75
2022-08-14T21:12:03.869Z,29.50
2022-08-14T21:17:06.229Z,26.27
2022-08-14T21:22:09.871Z,22.20
2022-08-14T21:27:20.242Z,28.25
2022-08-14T21:32:36.523Z,18.10
2022-08-14T21:37:53.790Z,22.58
2022-08-14T21:42:56.328Z,22.67
2022-08-14T21:47:59.160Z,22.45
2022-08-14T21:53:04.014Z,22.00
2022-08-14T21:58:52.203Z,21.38
2022-08-14T22:03:35.500Z,24.23
2022-08-14T22:08:39.443Z,22.38
2022-08-14T22:13:48.977Z,22.13
2022-08-14T22:18:52.318Z,21.98
2022-08-14T22:23:54.793Z,24.00
2022-08-14T22:28:58.820Z,21.20
2022-08-14T22:34:02.450Z,20.13
2022-08-14T22:39:06.509Z,21.70
2022-08-14T22:44:35.492Z,20.23
2022-08-14T22:50:32.070Z,23.65
2022-08-14T22:55:02.057Z,20.73
2022-08-14T23:00:25.385Z,22.23
2022-08-14T23:05:39.882Z,20.10
2022-08-14T23:10:54.149Z,20.15
2022-08-14T23:15:56.951Z,23.33
2022-08-14T23:20:59.721Z,25.75
2022-08-14T23:26:47.315Z,22.35
2022-08-14T23:31:35.622Z,26.27
2022-08-14T23:36:54.050Z,22.45
2022-08-14T23:41:58.123Z,23.25
2022-08-14T23:47:11.922Z,26.13
2022-08-14T23:52:55.834Z,26.20
2022-08-14T23:57:57.826Z,22.23
